sensor_id;sensor_type;location;lat;lon;timestamp;pressure;altitude;pressure_sealevel;temperature;humidity
5126;BME280;63008;53.112;8.896;2023-12-20T00:00:36;59215.53;;;-140.20;100.00
5126;BME280;63008;53.112;8.896;2023-12-20T00:02:58;59202.97;;;-140.20;100.00
5126;BME280;63008;53.112;8.896;2023-12-20T00:05:19;59196.72;;;-140.20;100.00
5126;BME280;63008;53.112;8.896;2023-12-20T00:07:40;59184.16;;;-140.20;100.00
5126;BME280;63008;53.112;8.896;2023-12-20T00:10:01;59205.06;;;-140.20;100.00
5126;BME280;63008;53.112;8.896;2023-12-20T00:12:22;59223.88;;;-140.20;100.00
5126;BME280;63008;53.112;8.896;2023-12-20T00:14:43;59236.44;;;-140.20;100.00
5126;BME280;63008;53.112;8.896;2023-12-20T00:17:04;59169.53;;;-140.20;100.00
5126;BME280;63008;53.112;8.896;2023-12-20T00:19:25;59240.63;;;-140.20;100.00
5126;BME280;63008;53.112;8.896;2023-12-20T00:21:46;59213.44;;;-140.20;100.00
5126;BME280;63008;53.112;8.896;2023-12-20T00:24:07;59190.44;;;-140.20;100.00
5126;BME280;63008;53.112;8.896;2023-12-20T00:26:28;59182.06;;;-140.20;100.00
5126;BME280;63008;53.112;8.896;2023-12-20T00:28:49;59207.16;;;-140.20;100.00
5126;BME280;63008;53.112;8.896;2023-12-20T00:31:11;59192.53;;;-140.20;100.00
5126;BME280;63008;53.112;8.896;2023-12-20T00:33:31;59213.44;;;-140.20;100.00
5126;BME280;63008;53.112;8.896;2023-12-20T00:35:52;59198.81;;;-140.20;100.00
5126;BME280;63008;53.112;8.896;2023-12-20T00:38:14;59177.88;;;-140.20;100.00
5126;BME280;63008;53.112;8.896;2023-12-20T00:40:35;59177.88;;;-140.20;100.00
5126;BME280;63008;53.112;8.896;2023-12-20T00:42:56;59194.63;;;-140.20;100.00
5126;BME280;63008;53.112;8.896;2023-12-20T00:45:17;59202.97;;;-140.20;100.00
5126;BME280;63008;53.112;8.896;2023-12-20T00:47:38;59179.97;;;-140.20;100.00
5126;BME280;63008;53.112;8.896;2023-12-20T00:49:59;59236.44;;;-140.20;100.00
5126;BME280;63008;53.112;8.896;2023-12-20T00:52:20;59217.63;;;-140.20;100.00
5126;BME280;63008;53.112;8.896;2023-12-20T00:54:43;59182.06;;;-140.20;100.00
5126;BME280;63008;53.112;8.896;2023-12-20T00:57:04;59186.25;;;-140.20;100.00
5126;BME280;63008;53.112;8.896;2023-12-20T00:59:25;59202.97;;;-140.20;100.00
5126;BME280;63008;53.112;8.896;2023-12-20T01:01:46;59215.53;;;-140.20;100.00
5126;BME280;63008;53.112;8.896;2023-12-20T01:04:07;59234.34;;;-140.20;100.00
5126;BME280;63008;53.112;8.896;2023-12-20T01:06:28;59184.16;;;-140.20;100.00
5126;BME280;63008;53.112;8.896;2023-12-20T01:08:49;59194.63;;;-140.20;100.00
5126;BME280;63008;53.112;8.896;2023-12-20T01:11:10;59198.81;;;-140.20;100.00
5126;BME280;63008;53.112;8.896;2023-12-20T01:13:31;59184.16;;;-140.20;100.00
5126;BME280;63008;53.112;8.896;2023-12-20T01:15:52;59217.63;;;-140.20;100.00
5126;BME280;63008;53.112;8.896;2023-12-20T01:18:14;59213.44;;;-140.20;100.00
5126;BME280;63008;53.112;8.896;2023-12-20T01:20:35;59188.34;;;-140.20;100.00
5126;BME280;63008;53.112;8.896;2023-12-20T01:22:56;59196.72;;;-140.20;100.00
5126;BME280;63008;53.112;8.896;2023-12-20T01:25:18;59200.88;;;-140.20;100.00
5126;BME280;63008;53.112;8.896;2023-12-20T01:27:39;59121.44;;;-140.20;100.00
5126;BME280;63008;53.112;8.896;2023-12-20T01:30:00;59194.63;;;-140.20;100.00
5126;BME280;63008;53.112;8.896;2023-12-20T01:32:21;59209.25;;;-140.20;100.00
5126;BME280;63008;53.112;8.896;2023-12-20T01:34:42;59131.91;;;-140.20;100.00
5126;BME280;63008;53.112;8.896;2023-12-20T01:37:03;59159.06;;;-140.20;100.00
5126;BME280;63008;53.112;8.896;2023-12-20T01:39:25;59198.81;;;-140.20;100.00
5126;BME280;63008;53.112;8.896;2023-12-20T01:41:46;59215.53;;;-140.20;100.00
5126;BME280;63008;53.112;8.896;2023-12-20T01:44:07;59209.25;;;-140.20;100.00
5126;BME280;63008;53.112;8.896;2023-12-20T01:46:28;59171.63;;;-140.20;100.00
5126;BME280;63008;53.112;8.896;2023-12-20T01:48:49;59217.63;;;-140.20;100.00
5126;BME280;63008;53.112;8.896;2023-12-20T01:51:10;59196.72;;;-140.20;100.00
5126;BME280;63008;53.112;8.896;2023-12-20T01:53:32;59215.53;;;-140.20;100.00
5126;BME280;63008;53.112;8.896;2023-12-20T01:55:55;59200.88;;;-140.20;100.00
5126;BME280;63008;53.112;8.896;2023-12-20T01:58:17;59188.34;;;-140.20;100.00
5126;BME280;63008;53.112;8.896;2023-12-20T02:00:38;59202.97;;;-140.20;100.00
5126;BME280;63008;53.112;8.896;2023-12-20T02:03:01;59167.44;;;-140.20;100.00
5126;BME280;63008;53.112;8.896;2023-12-20T02:05:23;59173.72;;;-140.20;100.00
5126;BME280;63008;53.112;8.896;2023-12-20T02:07:44;59205.06;;;-140.20;100.00
5126;BME280;63008;53.112;8.896;2023-12-20T02:10:06;59217.63;;;-140.20;100.00
5126;BME280;63008;53.112;8.896;2023-12-20T02:12:27;59200.88;;;-140.20;100.00
5126;BME280;63008;53.112;8.896;2023-12-20T02:14:48;59223.88;;;-140.20;100.00
5126;BME280;63008;53.112;8.896;2023-12-20T02:17:09;59179.97;;;-140.20;100.00
5126;BME280;63008;53.112;8.896;2023-12-20T02:19:30;59194.63;;;-140.20;100.00
5126;BME280;63008;53.112;8.896;2023-12-20T02:22:13;59219.72;;;-140.20;100.00
5126;BME280;63008;53.112;8.896;2023-12-20T02:24:34;59188.34;;;-140.20;100.00
5126;BME280;63008;53.112;8.896;2023-12-20T02:26:55;59173.72;;;-140.20;100.00
5126;BME280;63008;53.112;8.896;2023-12-20T02:29:16;59175.81;;;-140.20;100.00
5126;BME280;63008;53.112;8.896;2023-12-20T02:31:37;59217.63;;;-140.20;100.00
5126;BME280;63008;53.112;8.896;2023-12-20T02:33:58;59196.72;;;-140.20;100.00
5126;BME280;63008;53.112;8.896;2023-12-20T02:36:19;59186.25;;;-140.20;100.00
5126;BME280;63008;53.112;8.896;2023-12-20T02:38:40;59186.25;;;-140.20;100.00
5126;BME280;63008;53.112;8.896;2023-12-20T02:41:01;59200.88;;;-140.20;100.00
5126;BME280;63008;53.112;8.896;2023-12-20T02:43:22;59248.97;;;-140.20;100.00
5126;BME280;63008;53.112;8.896;2023-12-20T02:45:43;59228.06;;;-140.20;100.00
5126;BME280;63008;53.112;8.896;2023-12-20T02:48:04;59190.44;;;-140.20;100.00
5126;BME280;63008;53.112;8.896;2023-12-20T02:50:25;59221.81;;;-140.20;100.00
5126;BME280;63008;53.112;8.896;2023-12-20T02:52:46;59179.97;;;-140.20;100.00
5126;BME280;63008;53.112;8.896;2023-12-20T02:55:07;59169.53;;;-140.20;100.00
5126;BME280;63008;53.112;8.896;2023-12-20T02:57:28;59211.34;;;-140.20;100.00
5126;BME280;63008;53.112;8.896;2023-12-20T02:59:49;59232.25;;;-140.20;99.82
5126;BME280;63008;53.112;8.896;2023-12-20T03:02:11;59211.34;;;-140.20;99.90
5126;BME280;63008;53.112;8.896;2023-12-20T03:04:31;59207.16;;;-140.20;99.60
5126;BME280;63008;53.112;8.896;2023-12-20T03:06:52;59161.16;;;-140.20;99.60
5126;BME280;63008;53.112;8.896;2023-12-20T03:09:13;59223.88;;;-140.20;99.11
5126;BME280;63008;53.112;8.896;2023-12-20T03:11:34;59167.44;;;-140.20;99.12
5126;BME280;63008;53.112;8.896;2023-12-20T03:13:56;59215.53;;;-140.20;98.87
5126;BME280;63008;53.112;8.896;2023-12-20T03:16:17;59207.16;;;-140.20;98.93
5126;BME280;63008;53.112;8.896;2023-12-20T03:18:38;59196.72;;;-140.20;98.90
5126;BME280;63008;53.112;8.896;2023-12-20T03:20:59;59230.16;;;-140.20;98.95
5126;BME280;63008;53.112;8.896;2023-12-20T03:23:20;59177.88;;;-140.20;98.95
5126;BME280;63008;53.112;8.896;2023-12-20T03:25:41;59144.44;;;-140.20;98.86
5126;BME280;63008;53.112;8.896;2023-12-20T03:28:02;59200.88;;;-140.20;98.83
5126;BME280;63008;53.112;8.896;2023-12-20T03:30:24;59202.97;;;-140.20;98.72
5126;BME280;63008;53.112;8.896;2023-12-20T03:32:45;59192.53;;;-140.20;98.25
5126;BME280;63008;53.112;8.896;2023-12-20T03:35:06;59190.44;;;-140.20;97.67
5126;BME280;63008;53.112;8.896;2023-12-20T03:37:27;59198.81;;;-140.20;97.19
5126;BME280;63008;53.112;8.896;2023-12-20T03:39:48;59186.25;;;-140.20;97.16
5126;BME280;63008;53.112;8.896;2023-12-20T03:42:09;59173.72;;;-140.20;97.33
5126;BME280;63008;53.112;8.896;2023-12-20T03:44:30;59207.16;;;-140.20;97.20
5126;BME280;63008;53.112;8.896;2023-12-20T03:46:51;59161.16;;;-140.20;97.10
5126;BME280;63008;53.112;8.896;2023-12-20T03:49:12;59179.97;;;-140.20;97.80
5126;BME280;63008;53.112;8.896;2023-12-20T03:51:33;59205.06;;;-140.20;98.04
5126;BME280;63008;53.112;8.896;2023-12-20T03:53:54;59188.34;;;-140.20;98.37
5126;BME280;63008;53.112;8.896;2023-12-20T03:56:16;59192.53;;;-140.20;98.21
5126;BME280;63008;53.112;8.896;2023-12-20T03:58:36;59211.34;;;-140.20;98.26
5126;BME280;63008;53.112;8.896;2023-12-20T04:00:58;59182.06;;;-140.20;98.24
5126;BME280;63008;53.112;8.896;2023-12-20T04:03:18;59209.25;;;-140.20;97.92
5126;BME280;63008;53.112;8.896;2023-12-20T04:05:40;59211.34;;;-140.20;97.94
5126;BME280;63008;53.112;8.896;2023-12-20T04:08:02;59165.34;;;-140.20;98.12
5126;BME280;63008;53.112;8.896;2023-12-20T04:10:23;59207.16;;;-140.20;97.87
5126;BME280;63008;53.112;8.896;2023-12-20T04:12:43;59198.81;;;-140.20;97.36
5126;BME280;63008;53.112;8.896;2023-12-20T04:15:05;59161.16;;;-140.20;97.38
5126;BME280;63008;53.112;8.896;2023-12-20T04:17:29;59267.81;;;-140.20;97.21
5126;BME280;63008;53.112;8.896;2023-12-20T04:19:51;59169.53;;;-140.20;97.13
5126;BME280;63008;53.112;8.896;2023-12-20T04:22:12;59211.34;;;-140.20;96.76
5126;BME280;63008;53.112;8.896;2023-12-20T04:24:33;59182.06;;;-140.20;96.58
5126;BME280;63008;53.112;8.896;2023-12-20T04:26:54;59177.88;;;-140.20;96.50
5126;BME280;63008;53.112;8.896;2023-12-20T04:29:15;59186.25;;;-140.20;96.18
5126;BME280;63008;53.112;8.896;2023-12-20T04:31:36;59152.81;;;-140.20;95.79
5126;BME280;63008;53.112;8.896;2023-12-20T04:33:57;59179.97;;;-140.20;95.39
5126;BME280;63008;53.112;8.896;2023-12-20T04:36:18;59202.97;;;-140.20;95.31
5126;BME280;63008;53.112;8.896;2023-12-20T04:38:39;59184.16;;;-140.20;94.98
5126;BME280;63008;53.112;8.896;2023-12-20T04:41:00;59200.88;;;-140.20;95.17
5126;BME280;63008;53.112;8.896;2023-12-20T04:43:21;59184.16;;;-140.20;94.89
5126;BME280;63008;53.112;8.896;2023-12-20T04:45:42;59207.16;;;-140.20;95.46
5126;BME280;63008;53.112;8.896;2023-12-20T04:48:03;59173.72;;;-140.20;95.89
5126;BME280;63008;53.112;8.896;2023-12-20T04:50:25;59173.72;;;-140.20;95.74
5126;BME280;63008;53.112;8.896;2023-12-20T04:52:45;59154.88;;;-140.20;95.42
5126;BME280;63008;53.112;8.896;2023-12-20T04:55:06;59177.88;;;-140.20;95.42
5126;BME280;63008;53.112;8.896;2023-12-20T04:57:27;59219.72;;;-140.20;95.48
5126;BME280;63008;53.112;8.896;2023-12-20T04:59:49;59188.34;;;-140.20;96.01
5126;BME280;63008;53.112;8.896;2023-12-20T05:02:09;59179.97;;;-140.20;95.74
5126;BME280;63008;53.112;8.896;2023-12-20T05:04:31;59161.16;;;-140.20;95.53
5126;BME280;63008;53.112;8.896;2023-12-20T05:06:51;59179.97;;;-140.20;95.59
5126;BME280;63008;53.112;8.896;2023-12-20T05:09:12;59144.44;;;-140.20;95.62
5126;BME280;63008;53.112;8.896;2023-12-20T05:11:33;59177.88;;;-140.20;95.52
5126;BME280;63008;53.112;8.896;2023-12-20T05:13:55;59196.72;;;-140.20;95.52
5126;BME280;63008;53.112;8.896;2023-12-20T05:16:16;59190.44;;;-140.20;95.73
5126;BME280;63008;53.112;8.896;2023-12-20T05:18:38;59175.81;;;-140.20;95.73
5126;BME280;63008;53.112;8.896;2023-12-20T05:20:59;59179.97;;;-140.20;95.85
5126;BME280;63008;53.112;8.896;2023-12-20T05:23:20;59175.81;;;-140.20;95.74
5126;BME280;63008;53.112;8.896;2023-12-20T05:25:41;59192.53;;;-140.20;96.15
5126;BME280;63008;53.112;8.896;2023-12-20T05:28:02;59182.06;;;-140.20;96.97
5126;BME280;63008;53.112;8.896;2023-12-20T05:30:23;59211.34;;;-140.20;96.75
5126;BME280;63008;53.112;8.896;2023-12-20T05:32:44;59213.44;;;-140.20;97.07
5126;BME280;63008;53.112;8.896;2023-12-20T05:35:05;59223.88;;;-140.20;97.33
5126;BME280;63008;53.112;8.896;2023-12-20T05:37:26;59207.16;;;-140.20;96.90
5126;BME280;63008;53.112;8.896;2023-12-20T05:39:47;59167.44;;;-140.20;96.70
5126;BME280;63008;53.112;8.896;2023-12-20T05:42:08;59205.06;;;-140.20;96.90
5126;BME280;63008;53.112;8.896;2023-12-20T05:44:29;59175.81;;;-140.20;96.00
5126;BME280;63008;53.112;8.896;2023-12-20T05:46:50;59219.72;;;-140.20;95.35
5126;BME280;63008;53.112;8.896;2023-12-20T05:49:11;59144.44;;;-140.20;94.82
5126;BME280;63008;53.112;8.896;2023-12-20T05:51:32;59182.06;;;-140.20;94.57
5126;BME280;63008;53.112;8.896;2023-12-20T05:53:53;59156.97;;;-140.20;94.71
5126;BME280;63008;53.112;8.896;2023-12-20T05:56:14;59173.72;;;-140.20;94.42
5126;BME280;63008;53.112;8.896;2023-12-20T05:58:35;59213.44;;;-140.20;94.38
5126;BME280;63008;53.112;8.896;2023-12-20T06:00:56;59202.97;;;-140.20;94.30
5126;BME280;63008;53.112;8.896;2023-12-20T06:03:17;59198.81;;;-140.20;94.35
5126;BME280;63008;53.112;8.896;2023-12-20T06:05:38;59182.06;;;-140.20;94.59
5126;BME280;63008;53.112;8.896;2023-12-20T06:07:59;59202.97;;;-140.20;94.21
5126;BME280;63008;53.112;8.896;2023-12-20T06:10:23;59198.81;;;-140.20;94.12
5126;BME280;63008;53.112;8.896;2023-12-20T06:12:44;59207.16;;;-140.20;94.56
5126;BME280;63008;53.112;8.896;2023-12-20T06:15:08;59205.06;;;-140.20;94.62
5126;BME280;63008;53.112;8.896;2023-12-20T06:17:29;59144.44;;;-140.20;95.01
5126;BME280;63008;53.112;8.896;2023-12-20T06:19:51;59198.81;;;-140.20;95.07
5126;BME280;63008;53.112;8.896;2023-12-20T06:22:12;59182.06;;;-140.20;95.27
5126;BME280;63008;53.112;8.896;2023-12-20T06:24:33;59202.97;;;-140.20;95.06
5126;BME280;63008;53.112;8.896;2023-12-20T06:26:54;59221.81;;;-140.20;94.54
5126;BME280;63008;53.112;8.896;2023-12-20T06:29:16;59234.34;;;-140.20;94.59
5126;BME280;63008;53.112;8.896;2023-12-20T06:31:37;59142.34;;;-140.20;94.65
5126;BME280;63008;53.112;8.896;2023-12-20T06:33:58;59228.06;;;-140.20;94.85
5126;BME280;63008;53.112;8.896;2023-12-20T06:36:20;59217.63;;;-140.20;94.74
5126;BME280;63008;53.112;8.896;2023-12-20T06:38:41;59205.06;;;-140.20;94.74
5126;BME280;63008;53.112;8.896;2023-12-20T06:41:03;59209.25;;;-140.20;94.40
5126;BME280;63008;53.112;8.896;2023-12-20T06:43:24;59217.63;;;-140.20;94.10
5126;BME280;63008;53.112;8.896;2023-12-20T06:45:45;59194.63;;;-140.20;93.74
5126;BME280;63008;53.112;8.896;2023-12-20T06:48:06;59213.44;;;-140.20;93.85
5126;BME280;63008;53.112;8.896;2023-12-20T06:50:27;59202.97;;;-140.20;94.42
5126;BME280;63008;53.112;8.896;2023-12-20T06:52:48;59154.88;;;-140.20;93.90
5126;BME280;63008;53.112;8.896;2023-12-20T06:55:09;59190.44;;;-140.20;92.81
5126;BME280;63008;53.112;8.896;2023-12-20T06:57:31;59179.97;;;-140.20;93.05
5126;BME280;63008;53.112;8.896;2023-12-20T06:59:53;59198.81;;;-140.20;92.28
5126;BME280;63008;53.112;8.896;2023-12-20T07:02:14;59198.81;;;-140.20;91.80
5126;BME280;63008;53.112;8.896;2023-12-20T07:04:39;59167.44;;;-140.20;91.95
5126;BME280;63008;53.112;8.896;2023-12-20T07:07:00;59207.16;;;-140.20;92.39
5126;BME280;63008;53.112;8.896;2023-12-20T07:09:21;59211.34;;;-140.20;92.43
5126;BME280;63008;53.112;8.896;2023-12-20T07:11:42;59182.06;;;-140.20;92.36
5126;BME280;63008;53.112;8.896;2023-12-20T07:14:03;59198.81;;;-140.20;92.47
5126;BME280;63008;53.112;8.896;2023-12-20T07:16:24;59209.25;;;-140.20;92.41
5126;BME280;63008;53.112;8.896;2023-12-20T07:18:45;59186.25;;;-140.20;92.38
5126;BME280;63008;53.112;8.896;2023-12-20T07:21:06;59198.81;;;-140.20;92.54
5126;BME280;63008;53.112;8.896;2023-12-20T07:23:28;59196.72;;;-140.20;92.65
5126;BME280;63008;53.112;8.896;2023-12-20T07:25:50;59194.63;;;-140.20;92.66
5126;BME280;63008;53.112;8.896;2023-12-20T07:28:11;59188.34;;;-140.20;92.58
5126;BME280;63008;53.112;8.896;2023-12-20T07:30:32;59182.06;;;-140.20;92.38
5126;BME280;63008;53.112;8.896;2023-12-20T07:32:53;59217.63;;;-140.20;92.43
5126;BME280;63008;53.112;8.896;2023-12-20T07:35:15;59192.53;;;-140.20;92.45
5126;BME280;63008;53.112;8.896;2023-12-20T07:37:36;59232.25;;;-140.20;92.94
5126;BME280;63008;53.112;8.896;2023-12-20T07:39:57;59188.34;;;-140.20;93.21
5126;BME280;63008;53.112;8.896;2023-12-20T07:42:18;59161.16;;;-140.20;93.89
5126;BME280;63008;53.112;8.896;2023-12-20T07:44:39;59182.06;;;-140.20;94.02
5126;BME280;63008;53.112;8.896;2023-12-20T07:47:00;59198.81;;;-140.20;94.13
5126;BME280;63008;53.112;8.896;2023-12-20T07:49:22;59173.72;;;-140.20;93.93
5126;BME280;63008;53.112;8.896;2023-12-20T07:51:42;59209.25;;;-140.20;94.06
5126;BME280;63008;53.112;8.896;2023-12-20T07:54:04;59182.06;;;-140.20;94.17
5126;BME280;63008;53.112;8.896;2023-12-20T07:56:25;59207.16;;;-140.20;93.53
5126;BME280;63008;53.112;8.896;2023-12-20T07:58:46;59219.72;;;-140.20;93.11
5126;BME280;63008;53.112;8.896;2023-12-20T08:01:10;59202.97;;;-140.20;93.94
5126;BME280;63008;53.112;8.896;2023-12-20T08:03:31;59154.88;;;-140.20;94.37
5126;BME280;63008;53.112;8.896;2023-12-20T08:05:52;59219.72;;;-140.20;94.87
5126;BME280;63008;53.112;8.896;2023-12-20T08:08:13;59202.97;;;-140.20;95.24
5126;BME280;63008;53.112;8.896;2023-12-20T08:10:33;59192.53;;;-140.20;95.36
5126;BME280;63008;53.112;8.896;2023-12-20T08:12:54;59200.88;;;-140.20;95.53
5126;BME280;63008;53.112;8.896;2023-12-20T08:15:16;59211.34;;;-140.20;94.92
5126;BME280;63008;53.112;8.896;2023-12-20T08:17:37;59202.97;;;-140.20;94.84
5126;BME280;63008;53.112;8.896;2023-12-20T08:19:58;59173.72;;;-140.20;94.76
5126;BME280;63008;53.112;8.896;2023-12-20T08:22:19;59194.63;;;-140.20;94.92
5126;BME280;63008;53.112;8.896;2023-12-20T08:24:40;59171.63;;;-140.20;95.51
5126;BME280;63008;53.112;8.896;2023-12-20T08:27:02;59167.44;;;-140.20;95.37
5126;BME280;63008;53.112;8.896;2023-12-20T08:29:23;59182.06;;;-140.20;95.05
5126;BME280;63008;53.112;8.896;2023-12-20T08:31:44;59161.16;;;-140.20;94.69
5126;BME280;63008;53.112;8.896;2023-12-20T08:34:05;59207.16;;;-140.20;93.34
5126;BME280;63008;53.112;8.896;2023-12-20T08:36:26;59194.63;;;-140.20;93.05
5126;BME280;63008;53.112;8.896;2023-12-20T08:38:47;59186.25;;;-140.20;93.27
5126;BME280;63008;53.112;8.896;2023-12-20T08:41:08;59205.06;;;-140.20;94.42
5126;BME280;63008;53.112;8.896;2023-12-20T08:43:29;59184.16;;;-140.20;94.48
5126;BME280;63008;53.112;8.896;2023-12-20T08:45:50;59202.97;;;-140.20;94.58
5126;BME280;63008;53.112;8.896;2023-12-20T08:48:11;59169.53;;;-140.20;95.58
5126;BME280;63008;53.112;8.896;2023-12-20T08:50:32;59213.44;;;-140.20;94.56
5126;BME280;63008;53.112;8.896;2023-12-20T08:52:53;59161.16;;;-140.20;94.72
5126;BME280;63008;53.112;8.896;2023-12-20T08:55:14;59209.25;;;-140.20;93.90
5126;BME280;63008;53.112;8.896;2023-12-20T08:57:37;59175.81;;;-140.20;94.37
5126;BME280;63008;53.112;8.896;2023-12-20T08:59:58;59198.81;;;-140.20;94.44
5126;BME280;63008;53.112;8.896;2023-12-20T09:02:19;59200.88;;;-140.20;94.07
5126;BME280;63008;53.112;8.896;2023-12-20T09:04:39;59221.81;;;-140.20;95.30
5126;BME280;63008;53.112;8.896;2023-12-20T09:07:01;59182.06;;;-140.20;95.86
5126;BME280;63008;53.112;8.896;2023-12-20T09:09:22;59177.88;;;-140.20;96.32
5126;BME280;63008;53.112;8.896;2023-12-20T09:11:43;59192.53;;;-140.20;97.29
5126;BME280;63008;53.112;8.896;2023-12-20T09:14:07;59144.44;;;-140.20;97.33
5126;BME280;63008;53.112;8.896;2023-12-20T09:16:27;59188.34;;;-140.20;97.89
5126;BME280;63008;53.112;8.896;2023-12-20T09:18:48;59242.72;;;-140.20;97.71
5126;BME280;63008;53.112;8.896;2023-12-20T09:21:09;59194.63;;;-140.20;98.10
5126;BME280;63008;53.112;8.896;2023-12-20T09:23:30;59192.53;;;-140.20;99.53
5126;BME280;63008;53.112;8.896;2023-12-20T09:25:51;59200.88;;;-140.20;100.00
5126;BME280;63008;53.112;8.896;2023-12-20T09:28:13;59211.34;;;-140.20;100.00
5126;BME280;63008;53.112;8.896;2023-12-20T09:30:33;59207.16;;;-140.20;100.00
5126;BME280;63008;53.112;8.896;2023-12-20T09:32:56;59171.63;;;-140.20;100.00
5126;BME280;63008;53.112;8.896;2023-12-20T09:35:17;59215.53;;;-140.20;100.00
5126;BME280;63008;53.112;8.896;2023-12-20T09:37:38;59188.34;;;-140.20;100.00
5126;BME280;63008;53.112;8.896;2023-12-20T09:40:02;59177.88;;;-140.20;100.00
5126;BME280;63008;53.112;8.896;2023-12-20T09:42:38;59211.34;;;-140.20;100.00
5126;BME280;63008;53.112;8.896;2023-12-20T09:45:01;59186.25;;;-140.20;100.00
5126;BME280;63008;53.112;8.896;2023-12-20T09:47:24;59182.06;;;-140.20;100.00
5126;BME280;63008;53.112;8.896;2023-12-20T09:49:45;59211.34;;;-140.20;100.00
5126;BME280;63008;53.112;8.896;2023-12-20T09:52:07;59200.88;;;-140.20;99.19
5126;BME280;63008;53.112;8.896;2023-12-20T09:54:29;59205.06;;;-140.20;100.00
5126;BME280;63008;53.112;8.896;2023-12-20T09:56:50;59200.88;;;-140.20;100.00
5126;BME280;63008;53.112;8.896;2023-12-20T09:59:11;59190.44;;;-140.20;100.00
5126;BME280;63008;53.112;8.896;2023-12-20T10:01:33;59175.81;;;-140.20;100.00
5126;BME280;63008;53.112;8.896;2023-12-20T10:03:55;59213.44;;;-140.20;99.48
5126;BME280;63008;53.112;8.896;2023-12-20T10:06:15;59219.72;;;-140.20;98.79
5126;BME280;63008;53.112;8.896;2023-12-20T10:08:37;59228.06;;;-140.20;98.56
5126;BME280;63008;53.112;8.896;2023-12-20T10:10:58;59202.97;;;-140.20;99.29
5126;BME280;63008;53.112;8.896;2023-12-20T10:13:23;59173.72;;;-140.20;99.10
5126;BME280;63008;53.112;8.896;2023-12-20T10:15:44;59240.63;;;-140.20;99.74
5126;BME280;63008;53.112;8.896;2023-12-20T10:18:05;59217.63;;;-140.20;100.00
5126;BME280;63008;53.112;8.896;2023-12-20T10:20:26;59217.63;;;-140.20;100.00
5126;BME280;63008;53.112;8.896;2023-12-20T10:22:49;59194.63;;;-140.20;100.00
5126;BME280;63008;53.112;8.896;2023-12-20T10:25:10;59211.34;;;-140.20;100.00
5126;BME280;63008;53.112;8.896;2023-12-20T10:27:31;59225.97;;;-140.20;100.00
5126;BME280;63008;53.112;8.896;2023-12-20T10:29:52;59234.34;;;-140.20;100.00
5126;BME280;63008;53.112;8.896;2023-12-20T10:32:24;59205.06;;;-140.20;100.00
5126;BME280;63008;53.112;8.896;2023-12-20T10:34:45;59209.25;;;-140.20;99.95
5126;BME280;63008;53.112;8.896;2023-12-20T10:37:06;59230.16;;;-140.20;99.73
5126;BME280;63008;53.112;8.896;2023-12-20T10:39:27;59248.97;;;-140.20;99.23
5126;BME280;63008;53.112;8.896;2023-12-20T10:41:48;59169.53;;;-140.20;99.24
5126;BME280;63008;53.112;8.896;2023-12-20T10:44:10;59196.72;;;-140.20;99.47
5126;BME280;63008;53.112;8.896;2023-12-20T10:46:31;59207.16;;;-140.20;98.99
5126;BME280;63008;53.112;8.896;2023-12-20T10:48:55;59223.88;;;-140.20;98.41
5126;BME280;63008;53.112;8.896;2023-12-20T10:51:17;59215.53;;;-140.20;98.39
5126;BME280;63008;53.112;8.896;2023-12-20T10:53:39;59188.34;;;-140.20;98.19
5126;BME280;63008;53.112;8.896;2023-12-20T10:56:02;59188.34;;;-140.20;96.60
5126;BME280;63008;53.112;8.896;2023-12-20T10:58:25;59202.97;;;-140.20;97.25
5126;BME280;63008;53.112;8.896;2023-12-20T11:00:47;59238.53;;;-140.20;97.43
5126;BME280;63008;53.112;8.896;2023-12-20T11:03:11;59238.53;;;-140.20;96.62
5126;BME280;63008;53.112;8.896;2023-12-20T11:05:46;59223.88;;;-140.20;96.53
5126;BME280;63008;53.112;8.896;2023-12-20T11:08:15;59205.06;;;-140.20;95.63
5126;BME280;63008;53.112;8.896;2023-12-20T11:13:16;59194.63;;;-140.20;96.13
5126;BME280;63008;53.112;8.896;2023-12-20T11:15:41;59194.63;;;-140.20;95.93
5126;BME280;63008;53.112;8.896;2023-12-20T11:18:03;59190.44;;;-140.20;94.85
5126;BME280;63008;53.112;8.896;2023-12-20T11:20:38;59232.25;;;-140.20;95.29
5126;BME280;63008;53.112;8.896;2023-12-20T11:22:59;59228.06;;;-140.20;94.31
5126;BME280;63008;53.112;8.896;2023-12-20T11:25:20;59209.25;;;-140.20;93.58
5126;BME280;63008;53.112;8.896;2023-12-20T11:27:42;59205.06;;;-140.20;94.10
5126;BME280;63008;53.112;8.896;2023-12-20T11:30:04;59236.44;;;-140.20;93.51
5126;BME280;63008;53.112;8.896;2023-12-20T11:32:29;59207.16;;;-140.20;93.29
5126;BME280;63008;53.112;8.896;2023-12-20T11:34:51;59202.97;;;-140.20;92.33
5126;BME280;63008;53.112;8.896;2023-12-20T11:37:14;59236.44;;;-140.20;93.33
5126;BME280;63008;53.112;8.896;2023-12-20T11:39:35;59198.81;;;-140.20;93.52
5126;BME280;63008;53.112;8.896;2023-12-20T11:41:56;59150.72;;;-140.20;93.34
5126;BME280;63008;53.112;8.896;2023-12-20T11:44:18;59211.34;;;-140.20;93.16
5126;BME280;63008;53.112;8.896;2023-12-20T11:46:39;59219.72;;;-140.20;91.40
5126;BME280;63008;53.112;8.896;2023-12-20T11:49:00;59202.97;;;-140.20;91.84
5126;BME280;63008;53.112;8.896;2023-12-20T11:51:21;59223.88;;;-140.20;92.15
5126;BME280;63008;53.112;8.896;2023-12-20T11:53:42;59205.06;;;-140.20;90.69
5126;BME280;63008;53.112;8.896;2023-12-20T11:56:05;59173.72;;;-140.20;91.23
5126;BME280;63008;53.112;8.896;2023-12-20T11:58:26;59211.34;;;-140.20;91.50
5126;BME280;63008;53.112;8.896;2023-12-20T12:00:49;59190.44;;;-140.20;90.19
5126;BME280;63008;53.112;8.896;2023-12-20T12:03:14;59171.63;;;-140.20;89.94
5126;BME280;63008;53.112;8.896;2023-12-20T12:05:35;59159.06;;;-140.20;89.18
5126;BME280;63008;53.112;8.896;2023-12-20T12:07:56;59188.34;;;-140.20;89.69
5126;BME280;63008;53.112;8.896;2023-12-20T12:10:17;59177.88;;;-140.20;88.97
5126;BME280;63008;53.112;8.896;2023-12-20T12:12:38;59163.25;;;-140.20;89.08
5126;BME280;63008;53.112;8.896;2023-12-20T12:14:59;59169.53;;;-140.20;88.15
5126;BME280;63008;53.112;8.896;2023-12-20T12:17:21;59156.97;;;-140.20;89.01
5126;BME280;63008;53.112;8.896;2023-12-20T12:19:42;59169.53;;;-140.20;88.17